createdAt,value
2022-07-30T00:02:56.842Z,9.18
2022-07-30T00:09:39.285Z,9.73
2022-07-30T00:16:21.949Z,10.65
2022-07-30T00:23:04.943Z,9.43
2022-07-30T00:29:47.397Z,8.68
2022-07-30T00:36:30.029Z,8.73
2022-07-30T00:43:16.300Z,6.70
2022-07-30T00:49:58.789Z,6.60
2022-07-30T00:56:41.634Z,6.38
2022-07-30T01:03:24.584Z,5.57
2022-07-30T01:10:09.501Z,4.82
2022-07-30T01:16:51.949Z,4.18
2022-07-30T01:23:45.496Z,4.32
2022-07-30T01:30:31.166Z,4.43
2022-07-30T01:37:16.753Z,4.43
2022-07-30T01:44:00.405Z,4.28
2022-07-30T01:50:46.624Z,4.43
2022-07-30T01:57:30.743Z,4.32
2022-07-30T02:04:13.705Z,5.15
2022-07-30T02:11:07.072Z,5.03
2022-07-30T02:17:49.383Z,6.35
2022-07-30T02:24:34.377Z,4.70
2022-07-30T02:31:20.812Z,5.47
2022-07-30T02:38:05.519Z,4.65
2022-07-30T02:44:50.477Z,5.30
2022-07-30T02:51:35.312Z,5.28
2022-07-30T02:58:21.366Z,5.40
2022-07-30T03:05:06.349Z,5.25
2022-07-30T03:11:52.492Z,6.25
2022-07-30T03:18:37.973Z,5.93
2022-07-30T03:32:45.339Z,6.32
2022-07-30T03:39:29.430Z,6.90
2022-07-30T03:46:13.377Z,6.90
2022-07-30T03:53:00.501Z,6.15
2022-07-30T03:59:45.071Z,5.25
2022-07-30T04:06:27.630Z,5.10
2022-07-30T04:20:37.225Z,5.70
2022-07-30T04:27:20.652Z,6.15
2022-07-30T04:34:05.014Z,5.22
2022-07-30T04:40:54.186Z,5.43
2022-07-30T04:47:36.665Z,4.82
2022-07-30T04:54:42.256Z,5.45
2022-07-30T05:01:34.135Z,6.28
2022-07-30T05:08:25.675Z,5.57
2022-07-30T05:15:09.762Z,6.30
2022-07-30T05:21:52.364Z,4.60
2022-07-30T05:28:34.789Z,5.25
2022-07-30T05:35:22.604Z,4.80
2022-07-30T05:42:05.097Z,4.95
2022-07-30T05:49:01.861Z,4.18
2022-07-30T05:56:03.192Z,3.80
2022-07-30T06:03:11.876Z,4.60
2022-07-30T06:10:15.939Z,4.07
2022-07-30T06:16:58.640Z,4.28
2022-07-30T06:23:45.103Z,4.20
2022-07-30T06:30:34.840Z,3.83
2022-07-30T06:37:17.336Z,3.58
2022-07-30T06:44:00.343Z,4.05
2022-07-30T06:51:00.314Z,4.30
2022-07-30T06:57:43.747Z,3.58
2022-07-30T07:04:46.115Z,3.72
2022-07-30T07:11:28.789Z,3.75
2022-07-30T07:18:12.817Z,3.85
2022-07-30T07:24:59.168Z,4.38
2022-07-30T07:32:07.072Z,4.43
2022-07-30T07:38:48.251Z,3.55
2022-07-30T07:45:30.723Z,3.75
2022-07-30T07:52:19.158Z,3.97
2022-07-30T07:59:02.271Z,4.43
2022-07-30T08:05:53.861Z,3.35
2022-07-30T08:13:05.295Z,3.70
2022-07-30T08:20:28.701Z,4.00
2022-07-30T08:27:14.956Z,3.30
2022-07-30T08:33:58.128Z,2.78
2022-07-30T08:40:42.087Z,3.40
2022-07-30T08:47:33.028Z,3.50
2022-07-30T08:54:27.686Z,3.13
2022-07-30T09:01:10.126Z,2.80
2022-07-30T09:07:52.545Z,2.83
2022-07-30T09:14:38.037Z,2.58
2022-07-30T09:21:29.975Z,2.72
2022-07-30T09:28:34.290Z,3.22
2022-07-30T09:35:35.471Z,2.95
2022-07-30T09:42:28.784Z,2.83
2022-07-30T09:49:16.174Z,2.58
2022-07-30T09:55:59.506Z,2.33
2022-07-30T10:02:42.265Z,2.20
2022-07-30T10:09:48.845Z,2.55
2022-07-30T10:23:35.835Z,2.65
2022-07-30T10:30:39.133Z,2.05
2022-07-30T10:37:25.499Z,2.40
2022-07-30T10:44:34.789Z,2.15
2022-07-30T10:51:25.226Z,2.60
2022-07-30T10:58:15.567Z,2.28
2022-07-30T11:05:43.725Z,2.38
2022-07-30T11:12:45.264Z,2.28
2022-07-30T11:19:56.067Z,2.30
2022-07-30T11:33:41.335Z,2.20
2022-07-30T11:40:26.411Z,2.58
2022-07-30T11:47:09.271Z,2.30
2022-07-30T11:54:02.701Z,2.15
2022-07-30T12:07:47.921Z,2.17
2022-07-30T12:14:39.312Z,1.70
2022-07-30T12:21:24.524Z,2.40
2022-07-30T12:28:07.922Z,2.42
2022-07-30T12:34:57.964Z,1.90
2022-07-30T12:41:53.085Z,2.10
2022-07-30T12:48:35.780Z,1.60
2022-07-30T12:55:27.888Z,2.35
2022-07-30T13:02:10.483Z,2.00
2022-07-30T13:08:55.460Z,2.08
2022-07-30T13:15:40.816Z,2.13
2022-07-30T13:22:39.202Z,1.80
2022-07-30T13:29:21.596Z,2.10
2022-07-30T13:36:04.678Z,1.90
2022-07-30T13:42:47.024Z,1.85
2022-07-30T13:49:29.499Z,1.80
2022-07-30T13:56:13.203Z,1.90
2022-07-30T14:02:55.665Z,1.65
2022-07-30T14:09:45.795Z,1.92
2022-07-30T14:23:47.905Z,2.10
2022-07-30T14:30:30.444Z,2.22
2022-07-30T14:37:14.299Z,1.88
2022-07-30T14:43:57.258Z,1.80
2022-07-30T14:51:03.346Z,1.75
2022-07-30T14:57:43.355Z,1.80
2022-07-30T15:04:25.800Z,1.75
2022-07-30T15:11:08.325Z,2.03
2022-07-30T15:17:52.118Z,1.92
2022-07-30T15:24:34.566Z,1.58
2022-07-30T15:31:16.972Z,1.92
2022-07-30T15:38:00.403Z,1.80
2022-07-30T15:44:48.765Z,1.58
2022-07-30T15:51:32.607Z,1.50
2022-07-30T15:58:14.978Z,1.67
2022-07-30T16:04:57.427Z,1.70
2022-07-30T16:11:41.490Z,1.58
2022-07-30T16:18:24.443Z,2.08
2022-07-30T16:25:07.164Z,1.67
2022-07-30T16:31:49.884Z,1.70
2022-07-30T16:38:32.455Z,1.92
2022-07-30T16:45:14.818Z,1.85
2022-07-30T16:51:57.228Z,1.90
2022-07-30T16:58:39.574Z,1.73
2022-07-30T17:05:21.937Z,2.33
2022-07-30T17:12:09.606Z,2.53
2022-07-30T17:18:54.953Z,2.28
2022-07-30T17:25:37.395Z,1.70
2022-07-30T17:32:20.945Z,2.08
2022-07-30T17:39:05.046Z,1.90
2022-07-30T17:45:47.411Z,2.45
2022-07-30T17:52:29.769Z,2.30
2022-07-30T17:59:14.056Z,2.33
2022-07-30T18:05:56.692Z,2.00
2022-07-30T18:12:39.693Z,2.30
2022-07-30T18:19:31.663Z,1.70
2022-07-30T18:26:14.022Z,2.03
2022-07-30T18:32:56.492Z,2.10
2022-07-30T18:39:39.024Z,1.90
2022-07-30T18:46:21.548Z,2.45
2022-07-30T18:53:15.581Z,2.50
2022-07-30T18:59:58.262Z,2.20
2022-07-30T19:06:40.804Z,3.83
2022-07-30T19:13:24.087Z,2.17
2022-07-30T19:20:08.087Z,3.55
2022-07-30T19:26:50.795Z,3.63
2022-07-30T19:33:33.165Z,2.60
2022-07-30T19:40:15.687Z,2.58
2022-07-30T19:46:58.384Z,2.55
2022-07-30T19:54:19.610Z,2.90
2022-07-30T20:01:02.210Z,3.35
2022-07-30T20:07:51.023Z,3.00
2022-07-30T20:14:34.412Z,2.72
2022-07-30T20:21:17.695Z,3.20
2022-07-30T20:28:00.520Z,3.47
2022-07-30T20:34:43.027Z,3.72
2022-07-30T20:41:28.324Z,4.25
2022-07-30T20:48:17.446Z,4.03
2022-07-30T20:55:16.321Z,4.30
2022-07-30T21:01:59.129Z,3.08
2022-07-30T21:08:42.195Z,4.10
2022-07-30T21:15:24.637Z,4.38
2022-07-30T21:22:08.726Z,15.40
2022-07-30T21:28:51.433Z,7.57
2022-07-30T21:35:34.524Z,12.95
2022-07-30T21:42:17.322Z,8.68
2022-07-30T21:49:08.431Z,4.97
2022-07-30T21:55:52.984Z,4.82
2022-07-30T22:02:35.706Z,4.35
2022-07-30T22:09:33.488Z,4.82
2022-07-30T22:16:16.823Z,4.40
2022-07-30T22:23:03.325Z,4.25
2022-07-30T22:29:48.782Z,3.47
2022-07-30T22:36:31.263Z,3.80
2022-07-30T22:43:15.997Z,3.85
2022-07-30T22:49:59.235Z,3.88
2022-07-30T22:56:46.104Z,4.22
2022-07-30T23:03:28.687Z,4.65
2022-07-30T23:10:18.184Z,4.10
2022-07-30T23:17:17.282Z,4.45
2022-07-30T23:23:59.662Z,4.95
2022-07-30T23:30:42.013Z,5.28
2022-07-30T23:44:42.930Z,4.40
2022-07-30T23:51:25.283Z,4.68
2022-07-30T23:58:16.262Z,4.55
